Data for 01/14/2011

Time Sea-Level Adjusted Pressure Absolute Pressure Temperature Relative Humidity Dew Point   
(mb) (inHg) (mb) (inHg) (C) (F) (%) (C) (F)
00:05 1018 30.06 847 25.01 4.9 40.8 54 -3.6 25.5
00:10 1018 30.06 847 25.01 5.1 41.2 54 -3.5 25.7
00:15 1018 30.06 847 25.01 5.4 41.6 53 -3.5 25.7
00:20 1018 30.06 847 25.01 5.4 41.7 53 -3.5 25.7
00:25 1018 30.06 847 25.01 5.3 41.6 54 -3.3 26
00:30 1018 30.06 847 25.01 5.4 41.7 53 -3.4 25.8
00:35 1018 30.06 847 25.01 5.3 41.6 54 -3.2 26.2
00:40 1018 30.06 847 25.01 5.2 41.4 55 -3.1 26.5
00:45 1018 30.06 847 25.01 5 41.1 55 -3.3 26.1
00:50 1018 30.06 847 25.01 5 41 54 -3.5 25.8
00:55 1018 30.06 847 25.01 5.3 41.5 53 -3.6 25.6
01:00 1018 30.06 847 25.01 5.4 41.8 52 -3.6 25.5
01:05 1018 30.06 847 25.01 5.5 41.8 53 -3.4 25.9
01:10 1018 30.06 847 25.01 5.4 41.8 52 -3.5 25.6
01:15 1018 30.06 847 25.01 5.5 42 52 -3.6 25.5
01:20 1018 30.06 847 25.01 5.7 42.2 51 -3.8 25.2
01:25 1018 30.06 847 25.01 6 42.8 50 -3.7 25.4
01:30 1018 30.06 847 25.01 6 42.9 49 -4 24.8
01:35 1017 30.03 847 25.01 6.2 43.1 48 -3.9 25
01:40 1017 30.03 847 25.01 6.1 43 47 -4.2 24.4
01:45 1017 30.03 847 25.01 6.2 43.2 48 -4.1 24.6
01:50 1017 30.03 847 25.01 6.2 43.1 49 -3.8 25.2
01:55 1018 30.06 847 25.01 6 42.7 50 -3.6 25.5
02:00 1018 30.06 847 25.01 5.8 42.5 51 -3.6 25.6
02:05 1018 30.06 847 25.01 5.7 42.3 52 -3.5 25.8
02:10 1018 30.06 847 25.01 5.6 42.2 52 -3.6 25.6
02:15 1018 30.06 847 25.01 5.5 41.9 53 -3.4 25.9
02:20 1018 30.06 847 25.01 5.2 41.3 54 -3.3 26.1
02:25 1018 30.06 847 25.01 5 41 54 -3.5 25.7
02:30 1018 30.06 847 25.01 5.2 41.4 53 -3.6 25.5
02:35 1018 30.06 847 25.01 5.3 41.5 53 -3.4 25.8
02:40 1018 30.06 847 25.01 5 41 56 -3 26.6
02:45 1018 30.06 847 25.01 4.8 40.6 56 -3.3 26
02:50 1018 30.06 848 25.04 4.8 40.7 56 -3.1 26.4
02:55 1018 30.06 848 25.04 4.6 40.3 58 -3 26.6
03:00 1019 30.09 848 25.04 4.7 40.5 55 -3.5 25.6
03:05 1019 30.09 848 25.04 5.1 41.2 54 -3.4 25.9
03:10 1019 30.09 848 25.04 5.4 41.8 53 -3.5 25.8
03:15 1019 30.09 848 25.04 5.5 42 53 -3.3 26
03:20 1019 30.09 848 25.04 5.6 42.1 53 -3.3 26.1
03:25 1019 30.09 848 25.04 5.4 41.8 53 -3.3 26
03:30 1019 30.09 848 25.04 5.5 41.8 53 -3.3 26.1
03:35 1019 30.09 848 25.04 5.5 42 53 -3.4 25.9
03:40 1019 30.09 848 25.04 5.6 42.1 53 -3.1 26.4
03:45 1019 30.09 848 25.04 5.6 42 54 -3 26.7
03:50 1019 30.09 848 25.04 5.6 42.1 53 -3.2 26.2
03:55 1018 30.06 848 25.04 5.7 42.2 54 -3 26.7
04:00 1018 30.06 848 25.04 5.7 42.2 54 -3 26.6
04:05 1018 30.06 848 25.04 5.6 42.2 54 -2.9 26.7
04:10 1018 30.06 847 25.01 5.5 41.9 55 -2.8 26.9
04:15 1018 30.06 847 25.01 5.4 41.7 56 -2.5 27.4
04:20 1018 30.06 848 25.04 5.1 41.1 57 -2.6 27.3
04:25 1018 30.06 848 25.04 5.2 41.3 55 -3.1 26.3
04:30 1019 30.09 848 25.04 5.3 41.6 57 -2.4 27.7
04:35 1019 30.09 848 25.04 5.1 41.1 57 -2.7 27.2
04:40 1019 30.09 848 25.04 5.3 41.6 56 -2.8 27
04:45 1019 30.09 848 25.04 5.5 41.8 55 -2.8 27
04:50 1019 30.09 848 25.04 5.6 42.1 56 -2.5 27.5
04:55 1019 30.09 848 25.04 5.3 41.6 57 -2.4 27.6
05:00 1019 30.09 848 25.04 5.4 41.7 55 -2.9 26.7
05:05 1019 30.09 848 25.04 5.6 42.1 55 -2.6 27.2
05:10 1019 30.09 848 25.04 5.4 41.7 56 -2.6 27.4
05:15 1019 30.09 848 25.04 5.3 41.5 56 -2.7 27.1
05:20 1019 30.09 848 25.04 5.4 41.6 55 -3 26.7
05:25 1019 30.09 848 25.04 5.5 41.8 55 -2.9 26.8
05:30 1019 30.09 848 25.04 5.4 41.7 55 -3 26.7
05:35 1019 30.09 848 25.04 5.3 41.6 55 -3 26.7
05:40 1019 30.09 848 25.04 5.3 41.6 55 -2.9 26.8
05:45 1019 30.09 848 25.04 5.3 41.6 55 -3.1 26.4
05:50 1019 30.09 848 25.04 5.4 41.7 54 -3 26.6
05:55 1019 30.09 848 25.04 5.5 41.9 54 -3.1 26.3
06:00 1019 30.09 848 25.04 5.6 42.1 54 -2.9 26.7
06:05 1019 30.09 848 25.04 5.6 42.1 53 -3.3 26.1
06:10 1019 30.09 848 25.04 5.7 42.2 54 -3 26.6
06:15 1019 30.09 848 25.04 5.4 41.8 54 -3 26.5
06:20 1019 30.09 849 25.07 5.5 41.9 53 -3.3 26.1
06:25 1020 30.12 849 25.07 5.7 42.2 53 -3.2 26.3
06:30 1020 30.12 849 25.07 5.8 42.4 51 -3.6 25.6
06:35 1020 30.12 849 25.07 6 42.8 51 -3.3 26
06:40 1020 30.12 849 25.07 6 42.7 51 -3.5 25.7
06:45 1020 30.12 849 25.07 6 42.8 52 -3.2 26.2
06:50 1020 30.12 849 25.07 5.9 42.6 51 -3.4 25.9
06:55 1020 30.12 849 25.07 6 42.7 52 -3.2 26.3
07:00 1020 30.12 849 25.07 5.9 42.6 52 -3.3 26.1
07:05 1020 30.12 849 25.07 5.8 42.5 52 -3.2 26.3
07:10 1020 30.12 849 25.07 5.8 42.5 52 -3.2 26.2
07:15 1020 30.12 849 25.07 5.9 42.5 51 -3.5 25.7
07:20 1020 30.12 849 25.07 6 42.8 51 -3.4 25.8
07:25 1020 30.12 849 25.07 6 42.9 51 -3.4 25.9
07:30 1020 30.12 849 25.07 6 42.8 51 -3.2 26.2
07:35 1020 30.12 849 25.07 6 42.8 50 -3.8 25.2
07:40 1020 30.12 849 25.07 6.2 43.2 49 -3.6 25.5
07:45 1020 30.12 849 25.07 6.2 43.1 51 -3.3 26
07:50 1020 30.12 849 25.07 5.9 42.7 51 -3.5 25.7
07:55 1020 30.12 850 25.1 6 42.8 50 -3.5 25.7
08:00 1020 30.12 850 25.1 6 42.7 50 -3.6 25.5
08:05 1020 30.12 850 25.1 5.9 42.6 52 -3.3 26.1
08:10 1020 30.12 850 25.1 5.7 42.3 52 -3.3 26.1
08:15 1021 30.15 850 25.1 5.8 42.4 52 -3.4 25.9
08:20 1021 30.15 850 25.1 5.8 42.4 51 -3.5 25.7
08:25 1021 30.15 850 25.1 5.8 42.4 51 -3.5 25.8
08:30 1021 30.15 850 25.1 5.8 42.4 52 -3.3 26.1
08:35 1021 30.15 850 25.1 5.7 42.3 52 -3.4 25.9
08:40 1021 30.15 850 25.1 5.7 42.2 51 -3.6 25.5
08:45 1021 30.15 850 25.1 5.8 42.4 52 -3.3 26.1
08:50 1021 30.15 850 25.1 5.8 42.4 52 -3.4 25.8
08:55 1021 30.15 850 25.1 5.8 42.5 51 -3.5 25.8
09:00 1021 30.15 850 25.1 5.8 42.4 52 -3.4 25.9
09:05 1021 30.15 850 25.1 5.9 42.5 51 -3.4 25.8
09:10 1021 30.15 850 25.1 5.8 42.4 53 -3.1 26.5
09:15 1021 30.15 850 25.1 5.7 42.3 51 -3.5 25.6
09:20 1021 30.15 850 25.1 5.9 42.6 52 -3.3 26.1
09:25 1021 30.15 850 25.1 5.9 42.6 51 -3.5 25.6
09:30 1021 30.15 850 25.1 6 42.8 50 -3.5 25.6
09:35 1021 30.15 851 25.13 6 42.8 50 -3.6 25.5
09:40 1021 30.15 850 25.1 6.1 43 50 -3.5 25.7
09:45 1021 30.15 850 25.1 6.1 43 49 -3.8 25.1
09:50 1021 30.15 850 25.1 6.2 43.2 49 -3.7 25.3
09:55 1021 30.15 850 25.1 6.3 43.4 48 -3.8 25.1
10:00 1021 30.15 850 25.1 6.3 43.4 49 -3.6 25.5
10:05 1021 30.15 850 25.1 6.4 43.6 48 -3.8 25.2
10:10 1021 30.15 850 25.1 6.5 43.7 48 -3.7 25.4
10:15 1021 30.15 850 25.1 6.5 43.7 47 -3.9 25
10:20 1021 30.15 850 25.1 6.7 44 48 -3.5 25.6
10:25 1021 30.15 850 25.1 6.7 44 47 -3.8 25.2
10:30 1021 30.15 851 25.13 6.8 44.3 47 -3.7 25.3
10:35 1021 30.15 851 25.13 6.9 44.5 47 -3.5 25.7
10:40 1022 30.18 851 25.13 6.9 44.4 49 -3.2 26.3
10:45 1022 30.18 851 25.13 6.9 44.4 48 -3.5 25.8
10:50 1022 30.18 851 25.13 7.1 44.7 47 -3.3 26
10:55 1022 30.18 851 25.13 7.1 44.8 48 -3.1 26.4
11:00 1022 30.18 851 25.13 6.9 44.5 49 -3 26.5
11:05 1022 30.18 851 25.13 7 44.7 48 -3.3 26.1
11:10 1022 30.18 851 25.13 7.2 44.9 47 -3.4 25.9
11:15 1022 30.18 851 25.13 7.2 45 47 -3.4 25.9
11:20 1022 30.18 851 25.13 7.3 45.1 46 -3.5 25.8
11:25 1022 30.18 851 25.13 7.5 45.4 46 -3.3 26.1
11:30 1022 30.18 851 25.13 7.6 45.7 46 -3.3 26
11:35 1022 30.18 851 25.13 7.8 46 45 -3.5 25.7
11:40 1022 30.18 851 25.13 7.8 46 45 -3.3 26.1
11:45 1022 30.18 851 25.13 7.7 45.9 46 -3.3 26.1
11:50 1022 30.18 851 25.13 7.5 45.6 46 -3.4 25.9
11:55 1022 30.18 851 25.13 7.3 45.1 48 -3 26.6
12:00 1022 30.18 851 25.13 7.2 44.9 47 -3.3 26.1
12:05 1022 30.18 851 25.13 7 44.7 49 -3 26.6
12:10 1022 30.18 851 25.13 7 44.5 48 -3.3 26.1
12:15 1022 30.18 851 25.13 7.1 44.8 46 -3.6 25.5
12:20 1022 30.18 851 25.13 7.2 45 47 -3.3 26.1
12:25 1022 30.18 851 25.13 7.3 45.1 46 -3.5 25.7
12:30 1022 30.18 851 25.13 7.2 44.9 48 -3 26.6
12:35 1022 30.18 851 25.13 6.9 44.4 47 -3.5 25.6
12:40 1022 30.18 851 25.13 7.1 44.8 46 -3.6 25.5
12:45 1022 30.18 851 25.13 7.2 45 46 -3.6 25.6
12:50 1022 30.18 851 25.13 7.2 44.9 47 -3.4 25.9
12:55 1022 30.18 851 25.13 7.2 44.9 46 -3.8 25.2
13:00 1022 30.18 851 25.13 7.2 45 45 -3.9 24.9
13:05 1022 30.18 851 25.13 7.3 45.2 44 -4 24.7
13:10 1022 30.18 851 25.13 7.4 45.4 45 -3.6 25.4
13:15 1022 30.18 851 25.13 7.5 45.6 44 -4 24.9
13:20 1022 30.18 851 25.13 7.6 45.7 42 -4.3 24.2
13:25 1022 30.18 851 25.13 7.8 46 42 -4.4 24.1
13:30 1021 30.15 851 25.13 8 46.4 42 -4.1 24.6
13:35 1021 30.15 851 25.13 8 46.4 42 -4.1 24.6
13:40 1021 30.15 851 25.13 7.8 46.1 41 -4.5 24
13:45 1021 30.15 850 25.1 7.6 45.7 42 -4.5 23.9
13:50 1021 30.15 850 25.1 7.5 45.4 43 -4.3 24.2
13:55 1021 30.15 850 25.1 7.4 45.3 43 -4.5 23.9
14:00 1021 30.15 851 25.13 7.3 45.1 44 -4.1 24.6
14:05 1021 30.15 851 25.13 7 44.7 44 -4.4 24.2
14:10 1022 30.18 851 25.13 7.1 44.8 44 -4.2 24.4
14:15 1022 30.18 851 25.13 7 44.6 46 -3.9 25
14:20 1022 30.18 851 25.13 6.8 44.2 46 -4.1 24.7
14:25 1022 30.18 851 25.13 6.7 44.1 45 -4.4 24.1
14:30 1022 30.18 851 25.13 6.8 44.2 47 -3.8 25.2
14:35 1022 30.18 851 25.13 6.6 43.9 47 -3.8 25.2
14:40 1022 30.18 851 25.13 6.5 43.7 48 -3.8 25.1
14:45 1022 30.18 851 25.13 6.5 43.6 47 -4.1 24.7
14:50 1022 30.18 851 25.13 6.6 43.9 45 -4.3 24.3
14:55 1022 30.18 851 25.13 6.8 44.3 44 -4.5 24
15:00 1022 30.18 851 25.13 6.8 44.2 47 -3.7 25.3
15:05 1022 30.18 851 25.13 6.5 43.7 46 -4.2 24.4
15:10 1022 30.18 851 25.13 6.6 43.9 45 -4.4 24.1
15:15 1022 30.18 851 25.13 6.6 43.9 47 -4 24.7
15:20 1022 30.18 851 25.13 6.5 43.7 46 -4.3 24.3
15:25 1022 30.18 851 25.13 6.6 43.9 45 -4.4 24.2
15:30 1022 30.18 851 25.13 6.6 43.8 46 -4.1 24.7
15:35 1022 30.18 851 25.13 6.3 43.4 49 -3.7 25.4
15:40 1022 30.18 851 25.13 6.3 43.3 47 -4.3 24.2
15:45 1022 30.18 851 25.13 6.4 43.6 47 -4 24.9
15:50 1022 30.18 851 25.13 6.5 43.7 46 -4.4 24.1
15:55 1022 30.18 851 25.13 6.7 44.1 45 -4.3 24.3
16:00 1022 30.18 851 25.13 6.6 43.9 46 -4.3 24.3
16:05 1022 30.18 851 25.13 6.6 43.8 47 -3.9 24.9
16:10 1022 30.18 851 25.13 6.5 43.6 46 -4.2 24.4
16:15 1022 30.18 851 25.13 6.5 43.7 46 -4.3 24.2
16:20 1022 30.18 851 25.13 6.6 43.8 46 -4.2 24.4
16:25 1022 30.18 851 25.13 6.6 43.9 45 -4.3 24.2
16:30 1022 30.18 851 25.13 6.7 44.1 46 -4.2 24.5
16:35 1022 30.18 851 25.13 6.6 43.9 46 -4.1 24.7
16:40 1022 30.18 851 25.13 6.7 44 45 -4.4 24.2
16:45 1022 30.18 851 25.13 6.9 44.3 45 -4.3 24.2
16:50 1022 30.18 851 25.13 6.8 44.3 45 -4.3 24.2
16:55 1022 30.18 851 25.13 6.8 44.3 45 -4.3 24.2
17:00 1022 30.18 851 25.13 6.9 44.4 46 -3.9 25
17:05 1022 30.18 851 25.13 6.6 43.9 49 -3.4 25.9
17:10 1022 30.18 851 25.13 6.2 43.1 51 -3.3 26.1
17:15 1022 30.18 851 25.13 6 42.9 50 -3.6 25.5
17:20 1022 30.18 851 25.13 6.1 43 50 -3.7 25.4
17:25 1022 30.18 851 25.13 6.3 43.3 47 -4.1 24.6
17:30 1022 30.18 851 25.13 6.6 43.9 46 -4.3 24.3
17:35 1022 30.18 851 25.13 6.8 44.3 45 -4.2 24.5
17:40 1022 30.18 851 25.13 7 44.6 45 -4 24.8
17:45 1022 30.18 851 25.13 7 44.5 46 -3.7 25.3
17:50 1022 30.18 851 25.13 6.7 44.1 48 -3.6 25.6
17:55 1022 30.18 851 25.13 6.5 43.8 49 -3.5 25.8
18:00 1022 30.18 851 25.13 6.5 43.7 49 -3.3 26
18:05 1022 30.18 851 25.13 6.4 43.5 49 -3.5 25.7
18:10 1022 30.18 851 25.13 6.6 43.8 47 -3.9 25.1
18:15 1022 30.18 851 25.13 6.7 44.1 47 -3.7 25.4
18:20 1022 30.18 851 25.13 6.7 44 47 -3.9 25
18:25 1022 30.18 851 25.13 6.7 44.1 47 -3.8 25.2
18:30 1022 30.18 851 25.13 6.6 44 48 -3.6 25.5
18:35 1022 30.18 851 25.13 6.6 43.9 48 -3.6 25.6
18:40 1022 30.18 851 25.13 6.6 43.9 49 -3.4 25.8
18:45 1022 30.18 851 25.13 6.5 43.8 49 -3.3 26.1
18:50 1022 30.18 851 25.13 6.4 43.5 50 -3.3 26
18:55 1022 30.18 851 25.13 6.4 43.4 50 -3.2 26.2
19:00 1022 30.18 851 25.13 6.2 43.2 51 -3.2 26.3
19:05 1022 30.18 851 25.13 6.1 43 52 -3 26.6
19:10 1022 30.18 851 25.13 6.2 43.1 51 -3.1 26.3
19:15 1022 30.18 851 25.13 6.3 43.3 50 -3.3 26
19:20 1022 30.18 851 25.13 6.4 43.5 50 -3.3 26
19:25 1022 30.18 851 25.13 6.6 43.9 50 -3 26.6
19:30 1022 30.18 851 25.13 6.5 43.7 51 -2.9 26.7
19:35 1022 30.18 851 25.13 6.5 43.7 51 -2.9 26.9
19:40 1022 30.18 851 25.13 6.5 43.7 51 -3 26.7
19:45 1022 30.18 851 25.13 6.7 44.1 50 -3 26.7
19:50 1022 30.18 851 25.13 6.7 44.1 51 -2.7 27.2
19:55 1022 30.18 851 25.13 6.5 43.8 52 -2.5 27.5
20:00 1022 30.18 851 25.13 6.4 43.5 53 -2.5 27.5
20:05 1022 30.18 851 25.13 6.3 43.4 52 -2.7 27.1
20:10 1022 30.18 851 25.13 6.4 43.5 53 -2.6 27.4
20:15 1022 30.18 851 25.13 6.3 43.3 53 -2.5 27.5
20:20 1022 30.18 851 25.13 6.2 43.2 53 -2.5 27.4
20:25 1022 30.18 851 25.13 6 42.8 54 -2.5 27.6
20:30 1022 30.18 851 25.13 6 42.7 54 -2.6 27.4
20:35 1022 30.18 851 25.13 5.9 42.6 55 -2.4 27.7
20:40 1022 30.18 851 25.13 5.9 42.6 55 -2.6 27.4
20:45 1022 30.18 851 25.13 5.9 42.6 55 -2.4 27.7
20:50 1022 30.18 851 25.13 6.1 43 51 -3.2 26.2
20:55 1022 30.18 851 25.13 6.6 43.8 52 -2.6 27.3
21:00 1022 30.18 851 25.13 6.6 43.8 50 -3.2 26.3
21:05 1022 30.18 851 25.13 7.2 44.9 49 -2.9 26.8
21:10 1022 30.18 851 25.13 7.2 45 49 -2.7 27.2
21:15 1021 30.15 851 25.13 7.1 44.7 50 -2.7 27.2
21:20 1022 30.18 851 25.13 6.9 44.4 50 -2.7 27.1
21:25 1022 30.18 851 25.13 6.9 44.4 50 -2.8 27
21:30 1022 30.18 851 25.13 6.9 44.4 50 -2.8 27
21:35 1021 30.15 851 25.13 7 44.7 49 -3 26.5
21:40 1021 30.15 851 25.13 7.3 45.1 48 -2.9 26.8
21:45 1022 30.18 851 25.13 7.4 45.3 48 -2.8 26.9
21:50 1022 30.18 851 25.13 7.3 45.2 49 -2.7 27.2
21:55 1022 30.18 851 25.13 7.2 45 49 -2.7 27.2
22:00 1022 30.18 851 25.13 7.3 45.1 49 -2.7 27.1
22:05 1022 30.18 851 25.13 7 44.7 51 -2.4 27.7
22:10 1022 30.18 851 25.13 6.5 43.7 52 -2.6 27.4
22:15 1022 30.18 851 25.13 6.3 43.3 53 -2.5 27.5
22:20 1022 30.18 851 25.13 6.1 43 53 -2.6 27.3
22:25 1022 30.18 851 25.13 6.1 43 54 -2.6 27.4
22:30 1022 30.18 851 25.13 6.3 43.4 51 -3 26.7
22:35 1022 30.18 851 25.13 6.5 43.8 51 -2.8 27
22:40 1022 30.18 851 25.13 6.3 43.4 53 -2.6 27.3
22:45 1022 30.18 851 25.13 6.2 43.2 53 -2.7 27.1
22:50 1022 30.18 851 25.13 6.2 43.2 52 -2.8 27
22:55 1022 30.18 851 25.13 6.3 43.3 53 -2.7 27.2
23:00 1022 30.18 851 25.13 6.3 43.3 52 -2.7 27.1
23:05 1022 30.18 851 25.13 6.4 43.5 52 -2.7 27.1
23:10 1022 30.18 851 25.13 6.5 43.8 51 -2.8 27
23:15 1022 30.18 852 25.16 6.7 44 51 -2.8 26.9
23:20 1022 30.18 852 25.16 6.7 44.1 51 -2.6 27.3
23:25 1022 30.18 851 25.13 6.7 44.1 50 -2.9 26.8
23:30 1022 30.18 851 25.13 6.9 44.4 51 -2.6 27.3
23:35 1022 30.18 852 25.16 6.7 44 52 -2.5 27.5
23:40 1022 30.18 852 25.16 6.4 43.5 54 -2.3 27.8
23:45 1022 30.18 852 25.16 6 42.7 56 -2.2 28.1
23:50 1023 30.21 852 25.16 5.7 42.2 56 -2.3 27.8
23:55 1023 30.21 852 25.16 5.7 42.2 56 -2.4 27.8
24:00 1023 30.21 852 25.16 5.6 42.1 57 -2.3 27.8